createdAt,value
2022-10-27T00:01:08.210Z,11.70
2022-10-27T00:03:36.289Z,11.60
2022-10-27T00:06:07.110Z,11.60
2022-10-27T00:08:37.398Z,11.70
2022-10-27T00:11:07.261Z,11.60
2022-10-27T00:13:36.072Z,11.60
2022-10-27T00:16:05.937Z,11.60
2022-10-27T00:18:34.961Z,11.50
2022-10-27T00:21:05.788Z,11.50
2022-10-27T00:23:34.118Z,11.40
2022-10-27T00:26:03.699Z,11.40
2022-10-27T00:28:32.776Z,11.50
2022-10-27T00:31:02.591Z,11.50
2022-10-27T00:33:30.610Z,11.50
2022-10-27T00:36:04.580Z,11.50
2022-10-27T00:38:32.651Z,11.40
2022-10-27T00:41:01.131Z,11.30
2022-10-27T00:43:33.808Z,11.20
2022-10-27T00:46:05.202Z,11.10
2022-10-27T00:48:35.087Z,11.10
2022-10-27T00:51:04.950Z,11.00
2022-10-27T00:53:34.285Z,11.00
2022-10-27T00:56:05.626Z,10.90
2022-10-27T00:58:35.261Z,10.90
2022-10-27T01:01:03.861Z,11.00
2022-10-27T01:03:33.058Z,10.90
2022-10-27T01:06:01.218Z,11.00
2022-10-27T01:08:29.884Z,11.00
2022-10-27T01:10:58.080Z,10.90
2022-10-27T01:13:26.741Z,10.90
2022-10-27T01:16:05.275Z,10.90
2022-10-27T01:18:45.007Z,10.90
2022-10-27T01:21:41.973Z,10.90
2022-10-27T01:24:41.073Z,10.90
2022-10-27T01:27:16.352Z,10.80
2022-10-27T01:30:03.710Z,10.70
2022-10-27T01:32:40.387Z,10.70
2022-10-27T01:35:14.732Z,10.70
2022-10-27T01:37:48.229Z,10.70
2022-10-27T01:40:23.980Z,10.60
2022-10-27T01:42:55.739Z,10.60
2022-10-27T01:45:27.257Z,10.70
2022-10-27T01:47:58.928Z,10.70
2022-10-27T01:50:45.123Z,10.60
2022-10-27T01:53:21.920Z,10.50
2022-10-27T01:56:02.168Z,10.50
2022-10-27T01:58:44.792Z,10.50
2022-10-27T02:04:04.233Z,10.40
2022-10-27T02:06:39.623Z,10.50
2022-10-27T02:09:13.333Z,10.50
2022-10-27T02:11:45.182Z,10.50
2022-10-27T02:14:14.626Z,10.50
2022-10-27T02:16:46.883Z,10.50
2022-10-27T02:19:21.412Z,10.40
2022-10-27T02:21:53.779Z,10.30
2022-10-27T02:24:23.336Z,10.40
2022-10-27T02:26:54.497Z,10.40
2022-10-27T02:29:27.811Z,10.40
2022-10-27T02:32:00.600Z,10.30
2022-10-27T02:34:31.534Z,10.40
2022-10-27T02:36:59.595Z,10.40
2022-10-27T02:39:29.743Z,10.30
2022-10-27T02:41:57.913Z,10.30
2022-10-27T02:44:26.175Z,10.30
2022-10-27T02:46:54.257Z,10.30
2022-10-27T02:49:22.935Z,10.30
2022-10-27T02:51:52.448Z,10.40
2022-10-27T02:54:20.443Z,10.40
2022-10-27T02:56:48.469Z,10.30
2022-10-27T02:59:16.384Z,10.30
2022-10-27T03:01:44.467Z,10.20
2022-10-27T03:04:12.507Z,10.20
2022-10-27T03:06:40.584Z,10.20
2022-10-27T03:09:09.965Z,10.20
2022-10-27T03:11:39.577Z,10.20
2022-10-27T03:14:09.614Z,10.10
2022-10-27T03:16:37.691Z,10.10
2022-10-27T03:19:05.671Z,10.20
2022-10-27T03:21:34.098Z,10.10
2022-10-27T03:24:04.510Z,10.10
2022-10-27T03:26:33.838Z,10.10
2022-10-27T03:29:01.820Z,10.00
2022-10-27T03:31:29.983Z,10.00
2022-10-27T03:33:57.928Z,10.00
2022-10-27T03:36:25.926Z,10.00
2022-10-27T03:38:54.342Z,10.00
2022-10-27T03:41:22.795Z,10.00
2022-10-27T03:43:52.612Z,10.00
2022-10-27T03:46:20.900Z,10.00
2022-10-27T03:48:48.944Z,9.90
2022-10-27T03:51:17.058Z,10.00
2022-10-27T03:53:48.705Z,9.90
2022-10-27T03:56:17.140Z,9.90
2022-10-27T03:58:45.358Z,9.80
2022-10-27T04:01:14.827Z,9.80
2022-10-27T04:03:43.019Z,9.80
2022-10-27T04:06:11.163Z,9.90
2022-10-27T04:08:39.258Z,9.90
2022-10-27T04:11:07.098Z,10.00
2022-10-27T04:13:35.011Z,10.10
2022-10-27T04:16:04.011Z,10.00
2022-10-27T04:18:34.027Z,10.00
2022-10-27T04:21:03.011Z,10.00
2022-10-27T04:23:31.596Z,10.00
2022-10-27T04:26:00.300Z,10.00
2022-10-27T04:28:28.425Z,10.10
2022-10-27T04:30:56.414Z,10.10
2022-10-27T04:33:28.063Z,10.20
2022-10-27T04:35:59.316Z,10.20
2022-10-27T04:38:27.300Z,10.20
2022-10-27T04:40:55.644Z,10.10
2022-10-27T04:43:24.030Z,10.10
2022-10-27T04:45:52.116Z,10.00
2022-10-27T04:48:21.432Z,10.00
2022-10-27T04:50:49.610Z,10.00
2022-10-27T04:53:19.290Z,10.00
2022-10-27T04:55:47.397Z,10.10
2022-10-27T04:58:15.455Z,10.00
2022-10-27T05:00:43.845Z,9.90
2022-10-27T05:03:11.797Z,9.90
2022-10-27T05:05:39.854Z,9.90
2022-10-27T05:08:12.189Z,9.80
2022-10-27T05:10:41.666Z,9.90
2022-10-27T05:13:09.610Z,9.80
2022-10-27T05:15:37.599Z,9.80
2022-10-27T05:18:08.093Z,9.70
2022-10-27T05:20:39.575Z,9.70
2022-10-27T05:23:07.957Z,9.70
2022-10-27T05:25:36.061Z,9.70
2022-10-27T05:28:06.431Z,9.70
2022-10-27T05:30:34.746Z,9.70
2022-10-27T05:33:02.723Z,9.70
2022-10-27T05:35:31.081Z,9.70
2022-10-27T05:37:59.387Z,9.80
2022-10-27T05:40:27.495Z,9.70
2022-10-27T05:42:56.991Z,9.70
2022-10-27T05:45:27.065Z,9.80
2022-10-27T05:47:59.631Z,9.80
2022-10-27T05:50:31.573Z,9.80
2022-10-27T05:52:59.933Z,9.80
2022-10-27T05:55:28.470Z,9.80
2022-10-27T05:57:57.347Z,9.80
2022-10-27T06:00:30.620Z,9.80
2022-10-27T06:02:59.737Z,9.80
2022-10-27T06:05:28.907Z,9.80
2022-10-27T06:07:57.580Z,9.80
2022-10-27T06:10:26.420Z,9.80
2022-10-27T06:13:01.333Z,9.80
2022-10-27T06:15:31.209Z,9.80
2022-10-27T06:17:59.162Z,9.90
2022-10-27T06:20:27.795Z,9.80
2022-10-27T06:22:55.888Z,9.80
2022-10-27T06:25:24.190Z,9.80
2022-10-27T06:27:52.650Z,9.80
2022-10-27T06:30:20.928Z,9.80
2022-10-27T06:32:51.060Z,9.80
2022-10-27T06:35:19.818Z,9.80
2022-10-27T06:37:48.463Z,9.90
2022-10-27T06:40:18.003Z,9.80
2022-10-27T06:43:05.788Z,9.90
2022-10-27T06:45:35.575Z,10.00
2022-10-27T06:48:06.893Z,9.90
2022-10-27T06:50:35.809Z,9.90
2022-10-27T06:53:03.913Z,9.90
2022-10-27T06:55:32.658Z,9.90
2022-10-27T06:58:02.908Z,9.90
2022-10-27T07:00:31.541Z,10.00
2022-10-27T07:02:59.711Z,9.90
2022-10-27T07:05:29.288Z,9.90
2022-10-27T07:07:57.631Z,10.00
2022-10-27T07:10:25.707Z,10.00
2022-10-27T07:12:55.443Z,10.10
2022-10-27T07:15:23.914Z,10.20
2022-10-27T07:17:59.106Z,10.20
2022-10-27T07:20:30.847Z,10.20
2022-10-27T07:22:59.854Z,10.30
2022-10-27T07:25:28.751Z,10.40
2022-10-27T07:27:58.068Z,10.40
2022-10-27T07:30:28.309Z,10.40
2022-10-27T07:32:56.955Z,10.40
2022-10-27T07:35:25.773Z,10.40
2022-10-27T07:37:55.718Z,10.50
2022-10-27T07:40:28.794Z,10.50
2022-10-27T07:43:05.175Z,10.60
2022-10-27T07:45:37.433Z,10.70
2022-10-27T07:48:08.884Z,10.80
2022-10-27T07:50:36.885Z,10.90
2022-10-27T07:53:06.633Z,11.10
2022-10-27T07:55:36.910Z,11.30
2022-10-27T07:58:07.936Z,11.40
2022-10-27T08:00:37.636Z,11.60
2022-10-27T08:03:06.841Z,11.80
2022-10-27T08:05:36.061Z,11.90
2022-10-27T08:08:07.628Z,12.00
2022-10-27T08:10:37.951Z,12.10
2022-10-27T08:13:06.656Z,12.30
2022-10-27T08:15:35.744Z,12.50
2022-10-27T08:18:04.312Z,12.70
2022-10-27T08:20:34.073Z,12.80
2022-10-27T08:23:03.879Z,13.00
2022-10-27T08:25:34.065Z,13.10
2022-10-27T08:28:02.097Z,13.30
2022-10-27T08:30:33.714Z,13.30
2022-10-27T08:33:03.853Z,13.50
2022-10-27T08:35:33.730Z,13.70
2022-10-27T08:38:02.720Z,13.90
2022-10-27T08:40:38.984Z,13.90
2022-10-27T08:43:39.579Z,14.20
2022-10-27T08:46:14.009Z,14.20
2022-10-27T08:48:45.736Z,14.40
2022-10-27T08:51:19.616Z,14.60
2022-10-27T08:53:51.865Z,14.60
2022-10-27T08:56:27.168Z,14.50
2022-10-27T08:58:55.761Z,14.50
2022-10-27T09:01:30.896Z,14.70
2022-10-27T09:04:15.121Z,14.90
2022-10-27T09:06:50.522Z,14.80
2022-10-27T09:09:28.295Z,14.90
2022-10-27T09:12:05.483Z,15.10
2022-10-27T09:14:53.723Z,15.30
2022-10-27T09:17:25.587Z,15.50
2022-10-27T09:20:01.407Z,15.70
2022-10-27T09:22:32.253Z,15.80
2022-10-27T09:25:04.348Z,16.10
2022-10-27T09:27:39.068Z,16.30
2022-10-27T09:30:12.890Z,16.30
2022-10-27T09:32:44.135Z,16.50
2022-10-27T09:35:16.446Z,16.50
2022-10-27T09:37:47.040Z,16.60
2022-10-27T09:40:17.359Z,16.80
2022-10-27T09:42:50.653Z,17.00
2022-10-27T09:45:22.007Z,17.10
2022-10-27T09:47:58.032Z,17.40
2022-10-27T09:50:30.066Z,17.70
2022-10-27T09:52:58.192Z,17.80
2022-10-27T09:55:49.313Z,18.00
2022-10-27T09:58:19.121Z,18.10
2022-10-27T10:00:56.622Z,18.30
2022-10-27T10:03:24.794Z,18.30
2022-10-27T10:06:00.646Z,18.40
2022-10-27T10:08:30.486Z,18.50
2022-10-27T10:11:00.585Z,18.70
2022-10-27T10:13:30.809Z,19.00
2022-10-27T10:16:11.228Z,19.10
2022-10-27T10:18:40.669Z,19.30
2022-10-27T10:21:10.423Z,19.50
2022-10-27T10:23:49.279Z,19.70
2022-10-27T10:26:19.615Z,19.90
2022-10-27T10:28:53.096Z,20.00
2022-10-27T10:31:26.817Z,20.20
2022-10-27T10:34:02.575Z,20.30
2022-10-27T10:36:36.203Z,20.30
2022-10-27T10:39:23.939Z,20.50
2022-10-27T10:42:13.694Z,20.40
2022-10-27T10:44:45.665Z,20.40
2022-10-27T10:47:28.208Z,20.50
2022-10-27T10:49:59.749Z,20.80
2022-10-27T10:52:34.845Z,21.00
2022-10-27T10:55:07.970Z,21.10
2022-10-27T10:57:39.000Z,21.20
2022-10-27T11:00:17.130Z,21.00
2022-10-27T11:02:59.039Z,21.00
2022-10-27T11:05:31.890Z,21.10
2022-10-27T11:08:00.737Z,21.20
2022-10-27T11:10:33.665Z,21.10
2022-10-27T11:13:05.720Z,21.00
2022-10-27T11:15:39.013Z,21.00
2022-10-27T11:18:17.838Z,21.00
2022-10-27T11:20:49.780Z,20.90
2022-10-27T11:23:21.254Z,20.80
2022-10-27T11:25:50.009Z,20.90
2022-10-27T11:28:23.876Z,20.90
2022-10-27T11:31:02.065Z,21.10
2022-10-27T11:33:38.321Z,21.30
2022-10-27T11:36:12.967Z,21.20
2022-10-27T11:38:49.868Z,21.10
2022-10-27T11:41:25.703Z,21.20
2022-10-27T11:44:08.787Z,21.20
2022-10-27T11:46:44.687Z,21.30
2022-10-27T11:49:17.977Z,21.30
2022-10-27T11:51:50.317Z,21.40
2022-10-27T11:54:18.418Z,21.30
2022-10-27T11:57:01.191Z,21.30
2022-10-27T11:59:48.247Z,21.40
2022-10-27T12:02:36.219Z,21.40
2022-10-27T12:05:09.608Z,21.40
2022-10-27T12:07:52.067Z,21.50
2022-10-27T12:10:32.563Z,21.60
2022-10-27T12:13:05.786Z,21.50
2022-10-27T12:15:41.035Z,21.40
2022-10-27T12:18:19.027Z,21.30
2022-10-27T12:20:52.897Z,21.20
2022-10-27T12:23:25.723Z,21.30
2022-10-27T12:26:00.142Z,21.20
2022-10-27T12:28:29.921Z,21.20
2022-10-27T12:31:01.881Z,21.20
2022-10-27T12:33:38.916Z,21.30
2022-10-27T12:36:16.575Z,21.30
2022-10-27T12:38:51.577Z,21.40
2022-10-27T12:41:29.309Z,21.40
2022-10-27T12:44:06.823Z,21.30
2022-10-27T12:46:48.786Z,21.40
2022-10-27T12:49:26.184Z,21.40
2022-10-27T12:52:13.777Z,21.30
2022-10-27T12:55:09.324Z,21.40
2022-10-27T12:57:51.352Z,21.20
2022-10-27T13:00:21.897Z,21.10
2022-10-27T13:03:26.275Z,21.20
2022-10-27T13:06:16.125Z,21.20
2022-10-27T13:09:17.463Z,21.20
2022-10-27T13:12:11.918Z,21.10
2022-10-27T13:15:25.957Z,21.10
2022-10-27T13:18:03.683Z,20.90
2022-10-27T13:20:49.751Z,20.80
2022-10-27T13:23:26.412Z,20.90
2022-10-27T13:25:59.260Z,20.90
2022-10-27T13:28:34.026Z,20.70
2022-10-27T13:31:06.199Z,20.70
2022-10-27T13:33:36.422Z,20.60
2022-10-27T13:36:27.839Z,20.50
2022-10-27T13:39:29.021Z,20.50
2022-10-27T13:42:18.358Z,20.30
2022-10-27T13:44:48.066Z,20.20
2022-10-27T13:47:20.850Z,20.30
2022-10-27T13:50:01.409Z,20.30
2022-10-27T13:52:31.163Z,20.40
2022-10-27T13:55:06.949Z,20.40
2022-10-27T13:58:05.100Z,20.40
2022-10-27T14:01:08.318Z,20.30
2022-10-27T14:03:54.153Z,20.30
2022-10-27T14:06:28.299Z,20.30
2022-10-27T14:08:58.985Z,20.20
2022-10-27T14:11:31.223Z,20.10
2022-10-27T14:14:04.231Z,20.10
2022-10-27T14:16:35.572Z,20.10
2022-10-27T14:19:07.280Z,20.00
2022-10-27T14:21:40.674Z,20.00
2022-10-27T14:24:16.004Z,20.00
2022-10-27T14:26:43.968Z,19.90
2022-10-27T14:29:21.976Z,19.90
2022-10-27T14:31:50.577Z,19.80
2022-10-27T14:34:25.113Z,19.70
2022-10-27T14:36:55.503Z,19.50
2022-10-27T14:39:27.606Z,19.30
2022-10-27T14:42:00.556Z,19.30
2022-10-27T14:44:33.327Z,19.30
2022-10-27T14:47:07.011Z,19.30
2022-10-27T14:49:39.308Z,19.10
2022-10-27T14:52:13.130Z,19.10
2022-10-27T14:54:47.429Z,19.00
2022-10-27T14:57:33.332Z,18.70
2022-10-27T15:00:05.644Z,18.60
2022-10-27T15:02:33.948Z,18.60
2022-10-27T15:05:15.464Z,18.60
2022-10-27T15:07:46.899Z,18.60
2022-10-27T15:10:19.902Z,18.50
2022-10-27T15:12:51.903Z,18.50
2022-10-27T15:15:21.889Z,18.30
2022-10-27T15:17:52.180Z,18.20
2022-10-27T15:20:20.380Z,18.20
2022-10-27T15:22:52.319Z,18.20
2022-10-27T15:25:22.780Z,18.10
2022-10-27T15:27:50.951Z,18.00
2022-10-27T15:30:22.595Z,17.90
2022-10-27T15:32:51.330Z,17.70
2022-10-27T15:35:27.357Z,17.80
2022-10-27T15:37:55.613Z,17.80
2022-10-27T15:40:36.807Z,17.80
2022-10-27T15:43:21.208Z,17.80
2022-10-27T15:45:51.389Z,17.70
2022-10-27T15:48:35.060Z,17.60
2022-10-27T15:51:06.102Z,17.50
2022-10-27T15:53:37.416Z,17.40
2022-10-27T15:56:07.436Z,17.30
2022-10-27T15:58:37.748Z,17.20
2022-10-27T16:01:12.767Z,17.10
2022-10-27T16:03:43.627Z,17.00
2022-10-27T16:06:36.822Z,16.80
2022-10-27T16:09:06.785Z,16.80
2022-10-27T16:11:37.822Z,16.80
2022-10-27T16:14:09.034Z,16.70
2022-10-27T16:16:38.774Z,16.70
2022-10-27T16:19:09.379Z,16.50
2022-10-27T16:21:37.349Z,16.40
2022-10-27T16:24:14.392Z,16.30
2022-10-27T16:26:42.314Z,16.20
2022-10-27T16:29:15.146Z,16.10
2022-10-27T16:31:44.852Z,16.10
2022-10-27T16:34:22.445Z,16.00
2022-10-27T16:36:53.493Z,15.90
2022-10-27T16:39:21.651Z,15.80
2022-10-27T16:41:49.944Z,15.70
2022-10-27T16:44:18.252Z,15.80
2022-10-27T16:46:47.612Z,15.70
2022-10-27T16:49:15.584Z,15.80
2022-10-27T16:51:43.864Z,15.80
2022-10-27T16:54:11.934Z,15.80
2022-10-27T16:56:40.022Z,15.70
2022-10-27T16:59:08.181Z,15.70
2022-10-27T17:01:36.343Z,15.80
2022-10-27T17:04:06.052Z,15.70
2022-10-27T17:06:34.327Z,15.70
2022-10-27T17:09:02.318Z,15.60
2022-10-27T17:11:30.243Z,15.50
2022-10-27T17:13:58.358Z,15.30
2022-10-27T17:16:26.539Z,15.30
2022-10-27T17:18:54.702Z,15.40
2022-10-27T17:21:24.414Z,15.40
2022-10-27T17:23:52.496Z,15.30
2022-10-27T17:26:21.288Z,15.30
2022-10-27T17:28:50.064Z,15.20
2022-10-27T17:31:22.515Z,15.20
2022-10-27T17:33:53.086Z,15.20
2022-10-27T17:36:21.668Z,15.20
2022-10-27T17:38:53.326Z,15.30
2022-10-27T17:41:22.103Z,15.30
2022-10-27T17:43:50.398Z,15.30
2022-10-27T17:46:20.195Z,15.30
2022-10-27T17:48:50.687Z,15.30
2022-10-27T17:51:21.228Z,15.30
2022-10-27T17:53:52.409Z,15.40
2022-10-27T17:56:23.131Z,15.40
2022-10-27T17:58:52.294Z,15.40
2022-10-27T18:01:23.023Z,15.30
2022-10-27T18:03:52.954Z,15.40
2022-10-27T18:06:23.011Z,15.50
2022-10-27T18:08:55.659Z,15.50
2022-10-27T18:11:26.247Z,15.60
2022-10-27T18:13:59.387Z,15.60
2022-10-27T18:16:30.373Z,15.60
2022-10-27T18:19:00.802Z,15.70
2022-10-27T18:21:30.570Z,15.70
2022-10-27T18:24:01.441Z,15.70
2022-10-27T18:26:31.439Z,15.70
2022-10-27T18:28:59.739Z,15.70
2022-10-27T18:31:30.402Z,15.80
2022-10-27T18:33:58.922Z,15.80
2022-10-27T18:36:28.549Z,15.80
2022-10-27T18:38:57.831Z,15.80
2022-10-27T18:41:31.750Z,15.70
2022-10-27T18:43:59.826Z,15.60
2022-10-27T18:46:29.409Z,15.60
2022-10-27T18:48:59.958Z,15.50
2022-10-27T18:51:29.576Z,15.50
2022-10-27T18:53:59.375Z,15.50
2022-10-27T18:56:28.684Z,15.50
2022-10-27T18:58:59.040Z,15.50
2022-10-27T19:01:28.007Z,15.50
2022-10-27T19:03:57.400Z,15.60
2022-10-27T19:06:26.706Z,15.60
2022-10-27T19:08:55.157Z,15.50
2022-10-27T19:11:25.827Z,15.50
2022-10-27T19:13:56.057Z,15.50
2022-10-27T19:16:25.685Z,15.50
2022-10-27T19:18:55.873Z,15.50
2022-10-27T19:21:24.046Z,15.50
2022-10-27T19:23:58.475Z,15.40
2022-10-27T19:26:28.251Z,15.40
2022-10-27T19:29:01.293Z,15.40
2022-10-27T19:31:31.698Z,15.40
2022-10-27T19:34:00.374Z,15.40
2022-10-27T19:36:30.472Z,15.40
2022-10-27T19:38:59.859Z,15.40
2022-10-27T19:41:30.720Z,15.40
2022-10-27T19:44:00.824Z,15.30
2022-10-27T19:46:32.801Z,15.30
2022-10-27T19:49:02.337Z,15.30
2022-10-27T19:51:35.943Z,15.40
2022-10-27T19:54:04.626Z,15.30
2022-10-27T19:56:34.137Z,15.30
2022-10-27T19:59:04.040Z,15.30
2022-10-27T20:01:34.856Z,15.20
2022-10-27T20:04:04.270Z,15.20
2022-10-27T20:06:32.993Z,15.30
2022-10-27T20:09:02.273Z,15.20
2022-10-27T20:11:32.321Z,15.20
2022-10-27T20:14:02.541Z,15.20
2022-10-27T20:16:37.648Z,15.20
2022-10-27T20:19:07.894Z,15.20
2022-10-27T20:21:36.252Z,15.20
2022-10-27T20:24:11.710Z,15.20
2022-10-27T20:26:41.392Z,15.20
2022-10-27T20:29:09.723Z,15.30
2022-10-27T20:31:39.873Z,15.20
2022-10-27T20:34:10.485Z,15.20
2022-10-27T20:36:39.929Z,15.20
2022-10-27T20:39:09.763Z,15.20
2022-10-27T20:41:37.933Z,15.20
2022-10-27T20:44:06.588Z,15.20
2022-10-27T20:46:37.461Z,15.20
2022-10-27T20:49:06.950Z,15.10
2022-10-27T20:51:35.945Z,15.10
2022-10-27T20:54:04.571Z,15.00
2022-10-27T20:56:35.784Z,15.00
2022-10-27T20:59:04.671Z,15.00
2022-10-27T21:01:34.788Z,15.00
2022-10-27T21:04:05.187Z,14.90
2022-10-27T21:06:36.939Z,14.90
2022-10-27T21:09:08.345Z,14.90
2022-10-27T21:11:37.330Z,14.90
2022-10-27T21:14:07.069Z,14.90
2022-10-27T21:16:36.331Z,14.90
2022-10-27T21:19:07.073Z,14.90
2022-10-27T21:21:36.954Z,14.90
2022-10-27T21:24:07.009Z,15.00
2022-10-27T21:26:35.475Z,14.90
2022-10-27T21:29:03.744Z,14.90
2022-10-27T21:31:35.896Z,14.80
2022-10-27T21:34:05.913Z,14.80
2022-10-27T21:36:34.971Z,14.80
2022-10-27T21:39:08.028Z,14.80
2022-10-27T21:41:36.591Z,14.70
2022-10-27T21:44:05.082Z,14.60
2022-10-27T21:46:33.414Z,14.60
2022-10-27T21:49:02.651Z,14.60
2022-10-27T21:51:31.404Z,14.60
2022-10-27T21:54:01.682Z,14.60
2022-10-27T21:56:33.237Z,14.50
2022-10-27T21:59:01.831Z,14.60
2022-10-27T22:01:30.338Z,14.60
2022-10-27T22:03:59.000Z,14.70
2022-10-27T22:06:29.206Z,14.60
2022-10-27T22:08:58.118Z,14.60
2022-10-27T22:11:28.723Z,14.60
2022-10-27T22:13:58.667Z,14.50
2022-10-27T22:16:29.416Z,14.50
2022-10-27T22:18:59.018Z,14.50
2022-10-27T22:21:28.250Z,14.40
2022-10-27T22:23:56.367Z,14.40
2022-10-27T22:26:25.274Z,14.30
2022-10-27T22:28:54.249Z,14.30
2022-10-27T22:31:26.453Z,14.30
2022-10-27T22:33:55.424Z,14.30
2022-10-27T22:36:24.847Z,14.30
2022-10-27T22:38:54.634Z,14.20
2022-10-27T22:41:23.864Z,14.30
2022-10-27T22:43:52.183Z,14.30
2022-10-27T22:46:26.095Z,14.30
2022-10-27T22:48:54.582Z,14.20
2022-10-27T22:51:24.337Z,14.10
2022-10-27T22:53:54.852Z,14.10
2022-10-27T22:56:25.783Z,14.00
2022-10-27T22:58:55.592Z,14.00
2022-10-27T23:01:27.682Z,14.00
2022-10-27T23:03:59.142Z,14.00
2022-10-27T23:06:30.043Z,14.00
2022-10-27T23:08:59.853Z,14.00
2022-10-27T23:11:30.770Z,13.90
2022-10-27T23:13:58.852Z,13.90
2022-10-27T23:16:30.523Z,14.00
2022-10-27T23:18:59.694Z,13.90
2022-10-27T23:21:28.854Z,14.00
2022-10-27T23:23:58.328Z,14.00
2022-10-27T23:26:29.269Z,14.00
2022-10-27T23:28:58.891Z,14.00
2022-10-27T23:31:29.507Z,14.00
2022-10-27T23:33:59.122Z,13.90
2022-10-27T23:36:28.931Z,13.90
2022-10-27T23:38:58.235Z,13.90
2022-10-27T23:41:26.814Z,13.80
2022-10-27T23:43:58.036Z,13.80
2022-10-27T23:46:27.771Z,13.80
2022-10-27T23:48:57.345Z,13.80
2022-10-27T23:51:25.543Z,13.80
2022-10-27T23:53:55.793Z,13.80
2022-10-27T23:56:24.154Z,13.90
2022-10-27T23:58:52.236Z,13.90
